createdAt,value
2019-04-29T00:00:53.599Z,94180.16
2019-04-29T00:15:51.206Z,94177.34
2019-04-29T00:30:49.545Z,94157.69
2019-04-29T00:45:53.533Z,94148.27
2019-04-29T01:00:49.551Z,94152.86
2019-04-29T01:15:50.811Z,94147.70
2019-04-29T01:30:59.994Z,94140.23
2019-04-29T01:45:52.112Z,94136.60
2019-04-29T02:00:51.098Z,94134.14
2019-04-29T02:15:49.049Z,94137.03
2019-04-29T02:30:51.965Z,94128.77
2019-04-29T02:45:51.485Z,94123.20
2019-04-29T03:15:50.515Z,94129.70
2019-04-29T03:30:49.281Z,94153.59
2019-04-29T03:45:49.770Z,94150.58
2019-04-29T04:00:50.784Z,94152.75
2019-04-29T04:15:59.754Z,94170.03
2019-04-29T04:30:50.017Z,94161.78
2019-04-29T04:45:49.393Z,94157.25
2019-04-29T05:00:49.427Z,94138.39
2019-04-29T05:15:49.697Z,94151.84
2019-04-29T05:30:49.700Z,94141.34
2019-04-29T06:00:54.153Z,94147.75
2019-04-29T06:15:50.933Z,94146.98
2019-04-29T06:30:50.076Z,94148.48
2019-04-29T06:45:49.995Z,94132.80
2019-04-29T07:00:51.019Z,94122.77
2019-04-29T07:15:49.166Z,94111.00
2019-04-29T07:31:00.895Z,94109.55
2019-04-29T08:00:57.854Z,94099.47
2019-04-29T08:15:49.983Z,94094.20
2019-04-29T08:30:50.073Z,94082.81
2019-04-29T09:00:51.422Z,94057.26
2019-04-29T09:15:49.766Z,94041.78
2019-04-29T09:30:49.724Z,94030.00
2019-04-29T09:45:53.985Z,94014.06
2019-04-29T10:00:58.490Z,93999.92
2019-04-29T10:15:50.657Z,93980.45
2019-04-29T10:30:53.056Z,93959.09
2019-04-29T10:45:50.596Z,93938.70
2019-04-29T11:15:55.449Z,93897.52
2019-04-29T11:30:49.791Z,93889.58
2019-04-29T11:45:55.827Z,93883.45
2019-04-29T12:15:51.168Z,93846.85
2019-04-29T12:30:51.230Z,93831.08
2019-04-29T12:45:53.691Z,93808.69
2019-04-29T13:00:56.365Z,93790.53
2019-04-29T13:15:54.294Z,93795.60
2019-04-29T13:30:51.402Z,93768.39
2019-04-29T14:00:51.381Z,93760.53
2019-04-29T14:15:49.138Z,93747.36
2019-04-29T14:30:49.272Z,93739.28
2019-04-29T15:00:50.727Z,93725.90
2019-04-29T15:16:04.643Z,93740.78
2019-04-29T15:30:49.369Z,93745.34
2019-04-29T15:45:49.261Z,93728.36
2019-04-29T16:00:49.330Z,93735.50
2019-04-29T16:30:49.552Z,93746.03
2019-04-29T17:15:52.158Z,93780.09
2019-04-29T18:16:01.732Z,93811.70
2019-04-29T18:45:56.216Z,93851.40
2019-04-29T19:00:57.235Z,93855.08
2019-04-29T19:15:52.643Z,93851.19
2019-04-29T21:01:02.109Z,93858.53
2019-04-29T21:15:55.519Z,93858.59
2019-04-29T21:45:55.528Z,93881.64
2019-04-29T22:00:59.068Z,93881.31
2019-04-29T22:15:49.336Z,93873.50
2019-04-29T22:30:56.088Z,93881.68
2019-04-29T22:45:55.265Z,93874.67
2019-04-29T23:00:49.157Z,93852.63
2019-04-29T23:45:56.934Z,93845.48
